VTBU/UTP METAR and TAF weather

Enter ICAO airport designator
Station Type Date Time Source
VTBU METAR 2019/08/19 07:30 UTC NOAA

VTBU 190730Z 24010KT 9999 FEW020 31/21 Q1007 NOSIG


Station Type Date Time Source
VTBU Decoded METAR 2019/08/19 07:30 UTC NOAA

Station name not available
Aug 19, 2019 - 03:30 AM EDT / 2019.08.19 0730 UTC
Wind: from the WSW (240 degrees) at 12 MPH (10 KT):0
Visibility: greater than 7 mile(s):0
Sky conditions: mostly clear
Temperature: 87 F (31 C)
Dew Point: 69 F (21 C)
Relative Humidity: 55%
Pressure (altimeter): 29.74 in. Hg (1007 hPa)
ob: VTBU 190730Z 24010KT 9999 FEW020 31/21 Q1007 NOSIG
cycle: 7

Station Type Date Time Source
VTBU TAF 2019/08/19 06:39 UTC NOAA

TAF VTBU 190500Z 1906/2006 22010KT 9999 FEW020
BECMG 1912/1914 21006KT

Example: see airport list